createdAt,value
2019-02-16T00:00:24.983Z,35.33
2019-02-16T00:01:32.654Z,33.05
2019-02-16T00:02:39.182Z,31.48
2019-02-16T00:03:46.994Z,34.18
2019-02-16T00:04:53.397Z,31.17
2019-02-16T00:06:00.791Z,32.48
2019-02-16T00:07:07.940Z,33.13
2019-02-16T00:08:14.357Z,35.00
2019-02-16T00:09:20.923Z,35.25
2019-02-16T00:10:27.354Z,38.08
2019-02-16T00:11:33.980Z,36.05
2019-02-16T00:12:41.428Z,36.13
2019-02-16T00:13:48.929Z,38.35
2019-02-16T00:14:58.055Z,37.95
2019-02-16T00:16:05.272Z,37.85
2019-02-16T00:17:12.391Z,39.95
2019-02-16T00:18:19.436Z,39.67
2019-02-16T00:19:26.100Z,39.00
2019-02-16T00:20:33.250Z,39.60
2019-02-16T00:21:39.915Z,37.98
2019-02-16T00:22:48.064Z,38.60
2019-02-16T00:23:54.964Z,36.35
2019-02-16T00:25:01.650Z,36.05
2019-02-16T00:26:08.221Z,35.30
2019-02-16T00:27:15.434Z,34.13
2019-02-16T00:28:22.025Z,33.90
2019-02-16T00:29:30.027Z,33.63
2019-02-16T00:30:36.487Z,34.92
2019-02-16T00:31:43.311Z,35.98
2019-02-16T00:32:50.599Z,38.80
2019-02-16T00:33:56.877Z,37.17
2019-02-16T00:35:03.707Z,35.70
2019-02-16T00:36:10.247Z,37.00
2019-02-16T00:37:16.800Z,36.40
2019-02-16T00:38:23.790Z,38.55
2019-02-16T00:39:30.828Z,34.23
2019-02-16T00:40:37.657Z,35.38
2019-02-16T00:41:44.905Z,33.92
2019-02-16T00:42:51.930Z,34.75
2019-02-16T00:43:57.903Z,33.73
2019-02-16T00:45:06.737Z,30.25
2019-02-16T00:46:13.460Z,28.45
2019-02-16T00:47:20.374Z,32.13
2019-02-16T00:48:27.326Z,32.38
2019-02-16T00:49:33.836Z,29.77
2019-02-16T00:50:40.412Z,30.43
2019-02-16T00:51:49.251Z,31.20
2019-02-16T00:52:56.009Z,30.72
2019-02-16T00:54:03.867Z,30.88
2019-02-16T00:55:10.910Z,31.17
2019-02-16T00:56:17.584Z,30.90
2019-02-16T00:57:24.407Z,31.55
2019-02-16T00:58:31.637Z,31.45
2019-02-16T00:59:38.577Z,31.37
2019-02-16T01:00:45.334Z,28.55
2019-02-16T01:01:52.525Z,30.23
2019-02-16T01:02:59.215Z,30.72
2019-02-16T01:04:05.512Z,31.40
2019-02-16T01:05:12.594Z,30.23
2019-02-16T01:06:19.467Z,29.80
2019-02-16T01:07:26.659Z,28.23
2019-02-16T01:08:33.866Z,27.90
2019-02-16T01:09:40.157Z,28.20
2019-02-16T01:10:46.442Z,28.75
2019-02-16T01:11:57.603Z,28.75
2019-02-16T01:13:04.808Z,29.05
2019-02-16T01:14:10.930Z,28.50
2019-02-16T01:15:18.575Z,27.17
2019-02-16T01:16:25.506Z,27.13
2019-02-16T01:17:32.360Z,26.07
2019-02-16T01:18:40.172Z,26.30
2019-02-16T01:19:47.701Z,26.30
2019-02-16T01:20:54.467Z,26.80
2019-02-16T01:22:01.422Z,27.17
2019-02-16T01:23:07.972Z,26.07
2019-02-16T01:24:15.030Z,27.17
2019-02-16T01:25:22.142Z,26.42
2019-02-16T01:26:28.638Z,26.42
2019-02-16T01:27:35.049Z,26.75
2019-02-16T01:28:42.601Z,27.52
2019-02-16T01:29:49.052Z,25.27
2019-02-16T01:30:56.266Z,26.85
2019-02-16T01:32:02.726Z,26.40
2019-02-16T01:33:09.958Z,26.05
2019-02-16T01:34:17.216Z,24.00
2019-02-16T01:35:25.025Z,24.95
2019-02-16T01:36:31.539Z,24.90
2019-02-16T01:37:38.547Z,23.50
2019-02-16T01:38:46.422Z,25.55
2019-02-16T01:39:53.335Z,25.68
2019-02-16T01:41:01.554Z,24.98
2019-02-16T01:42:07.835Z,24.87
2019-02-16T01:43:14.974Z,27.35
2019-02-16T01:44:22.093Z,26.30
2019-02-16T01:45:28.605Z,25.32
2019-02-16T01:46:35.706Z,23.02
2019-02-16T01:47:42.610Z,24.18
2019-02-16T01:48:51.258Z,24.55
2019-02-16T01:49:58.098Z,22.93
2019-02-16T01:51:04.682Z,23.70
2019-02-16T01:52:11.223Z,23.35
2019-02-16T01:53:17.709Z,24.67
2019-02-16T01:54:24.280Z,27.10
2019-02-16T01:55:31.708Z,26.45
2019-02-16T01:56:38.959Z,23.62
2019-02-16T01:57:46.620Z,22.62
2019-02-16T01:58:52.847Z,19.57
2019-02-16T02:00:00.059Z,20.82
2019-02-16T02:01:07.615Z,21.93
2019-02-16T02:02:13.933Z,22.20
2019-02-16T02:03:22.203Z,20.90
2019-02-16T02:04:29.066Z,20.97
2019-02-16T02:05:36.445Z,21.30
2019-02-16T02:06:42.375Z,22.00
2019-02-16T02:07:48.986Z,23.32
2019-02-16T02:08:56.204Z,22.07
2019-02-16T02:10:02.818Z,22.13
2019-02-16T02:11:10.045Z,20.85
2019-02-16T02:12:16.750Z,21.97
2019-02-16T02:13:23.600Z,20.97
2019-02-16T02:14:30.350Z,21.90
2019-02-16T02:15:38.228Z,21.87
2019-02-16T02:16:44.426Z,21.37
2019-02-16T02:17:51.064Z,20.35
2019-02-16T02:18:57.194Z,21.02
2019-02-16T02:20:03.348Z,20.52
2019-02-16T02:21:10.092Z,20.10
2019-02-16T02:22:17.111Z,20.55
2019-02-16T02:23:23.943Z,20.35
2019-02-16T02:24:30.879Z,20.23
2019-02-16T02:25:37.855Z,19.80
2019-02-16T02:26:44.963Z,18.75
2019-02-16T02:27:51.557Z,19.70
2019-02-16T02:28:58.001Z,20.68
2019-02-16T02:30:05.377Z,20.30
2019-02-16T02:31:12.267Z,21.27
2019-02-16T02:32:19.379Z,21.33
2019-02-16T02:33:26.438Z,22.40
2019-02-16T02:34:33.323Z,20.27
2019-02-16T02:35:40.197Z,22.93
2019-02-16T02:36:46.148Z,20.90
2019-02-16T02:37:52.059Z,18.77
2019-02-16T02:38:58.960Z,18.92
2019-02-16T02:40:08.386Z,19.37
2019-02-16T02:41:15.575Z,18.70
2019-02-16T02:42:21.920Z,19.95
2019-02-16T02:43:29.792Z,20.65
2019-02-16T02:44:40.402Z,19.35
2019-02-16T02:45:47.736Z,20.15
2019-02-16T02:46:54.338Z,21.45
2019-02-16T02:48:01.720Z,20.50
2019-02-16T02:49:08.691Z,20.77
2019-02-16T02:50:17.733Z,23.22
2019-02-16T02:51:24.635Z,18.82
2019-02-16T02:52:30.861Z,20.50
2019-02-16T02:53:37.718Z,21.07
2019-02-16T02:54:44.320Z,21.68
2019-02-16T02:55:50.523Z,21.95
2019-02-16T02:56:57.219Z,20.68
2019-02-16T02:58:03.595Z,22.00
2019-02-16T02:59:10.466Z,23.10
2019-02-16T03:00:17.481Z,22.00
2019-02-16T03:01:24.807Z,19.75
2019-02-16T03:02:31.671Z,18.50
2019-02-16T03:03:39.457Z,20.57
2019-02-16T03:04:46.999Z,22.20
2019-02-16T03:05:54.361Z,22.45
2019-02-16T03:07:00.268Z,22.07
2019-02-16T03:08:08.205Z,24.67
2019-02-16T03:09:15.671Z,23.27
2019-02-16T03:10:23.227Z,25.95
2019-02-16T03:11:30.740Z,25.15
2019-02-16T03:12:36.897Z,23.98
2019-02-16T03:13:44.126Z,24.87
2019-02-16T03:14:51.719Z,25.65
2019-02-16T03:16:00.083Z,23.70
2019-02-16T03:17:07.105Z,24.40
2019-02-16T03:18:13.455Z,25.48
2019-02-16T03:19:20.285Z,23.50
2019-02-16T03:20:26.942Z,23.60
2019-02-16T03:21:33.650Z,24.37
2019-02-16T03:23:19.516Z,25.02
2019-02-16T03:24:26.822Z,23.55
2019-02-16T03:25:33.578Z,26.62
2019-02-16T03:27:10.024Z,23.20
2019-02-16T03:28:44.488Z,23.77
2019-02-16T03:30:24.290Z,21.93
2019-02-16T03:31:57.154Z,22.82
2019-02-16T03:33:17.475Z,22.52
2019-02-16T03:34:40.110Z,22.67
2019-02-16T03:36:25.026Z,21.52
2019-02-16T03:37:58.601Z,20.68
2019-02-16T03:39:12.562Z,20.55
2019-02-16T03:40:20.196Z,20.52
2019-02-16T03:41:27.546Z,22.25
2019-02-16T03:42:35.156Z,21.68
2019-02-16T03:43:42.205Z,21.37
2019-02-16T03:44:49.733Z,20.45
2019-02-16T03:45:56.466Z,20.90
2019-02-16T03:47:03.183Z,20.62
2019-02-16T03:48:10.059Z,22.07
2019-02-16T03:49:34.324Z,20.70
2019-02-16T03:50:49.866Z,20.20
2019-02-16T03:51:57.400Z,19.90
2019-02-16T03:53:03.874Z,21.42
2019-02-16T03:54:11.789Z,20.72
2019-02-16T03:55:18.774Z,22.52
2019-02-16T03:56:25.763Z,20.05
2019-02-16T03:57:33.252Z,23.22
2019-02-16T03:58:39.347Z,20.72
2019-02-16T03:59:46.575Z,22.30
2019-02-16T04:00:54.473Z,20.08
2019-02-16T04:02:01.089Z,20.70
2019-02-16T04:03:07.916Z,21.73
2019-02-16T04:04:15.811Z,22.15
2019-02-16T04:05:22.041Z,20.85
2019-02-16T04:06:28.963Z,22.10
2019-02-16T04:07:36.125Z,18.15
2019-02-16T04:08:42.744Z,19.75
2019-02-16T04:09:49.970Z,19.70
2019-02-16T04:10:56.457Z,20.43
2019-02-16T04:12:03.233Z,19.37
2019-02-16T04:13:10.021Z,20.43
2019-02-16T04:14:18.570Z,18.15
2019-02-16T04:15:25.534Z,20.97
2019-02-16T04:16:33.119Z,20.23
2019-02-16T04:17:39.678Z,19.02
2019-02-16T04:18:45.793Z,21.10
2019-02-16T04:19:52.577Z,19.57
2019-02-16T04:21:00.025Z,19.50
2019-02-16T04:22:07.736Z,19.87
2019-02-16T04:23:17.542Z,22.27
2019-02-16T04:24:24.080Z,21.48
2019-02-16T04:25:31.095Z,19.75
2019-02-16T04:26:40.413Z,20.82
2019-02-16T04:27:46.794Z,22.60
2019-02-16T04:28:53.327Z,21.45
2019-02-16T04:30:00.398Z,18.92
2019-02-16T04:31:07.335Z,20.05
2019-02-16T04:32:15.155Z,19.73
2019-02-16T04:33:23.538Z,19.05
2019-02-16T04:34:30.072Z,19.45
2019-02-16T04:35:37.390Z,18.98
2019-02-16T04:36:45.391Z,19.42
2019-02-16T04:37:53.176Z,18.65
2019-02-16T04:39:00.392Z,19.12
2019-02-16T04:40:09.262Z,20.60
2019-02-16T04:41:16.051Z,19.35
2019-02-16T04:42:23.251Z,22.30
2019-02-16T04:43:31.122Z,19.65
2019-02-16T04:44:38.229Z,20.62
2019-02-16T04:45:44.939Z,18.20
2019-02-16T04:46:52.602Z,19.20
2019-02-16T04:47:59.237Z,21.33
2019-02-16T04:49:07.414Z,20.68
2019-02-16T04:50:14.758Z,20.50
2019-02-16T04:51:21.027Z,20.02
2019-02-16T04:52:34.365Z,20.55
2019-02-16T04:53:36.297Z,20.88
2019-02-16T04:54:43.876Z,20.92
2019-02-16T04:55:50.624Z,20.20
2019-02-16T04:56:57.248Z,21.45
2019-02-16T04:58:03.458Z,23.25
2019-02-16T04:59:10.049Z,22.02
2019-02-16T05:00:16.680Z,24.50
2019-02-16T05:01:23.263Z,21.55
2019-02-16T05:02:30.104Z,25.60
2019-02-16T05:03:37.280Z,24.35
2019-02-16T05:04:44.497Z,30.48
2019-02-16T05:05:51.606Z,24.95
2019-02-16T05:06:58.635Z,25.68
2019-02-16T05:08:05.891Z,22.22
2019-02-16T05:09:13.115Z,22.55
2019-02-16T05:10:19.927Z,20.10
2019-02-16T05:11:27.197Z,22.10
2019-02-16T05:12:34.049Z,22.45
2019-02-16T05:13:40.541Z,22.85
2019-02-16T05:14:48.270Z,23.25
2019-02-16T05:15:55.488Z,21.97
2019-02-16T05:17:02.609Z,23.25
2019-02-16T05:18:10.290Z,23.38
2019-02-16T05:19:16.223Z,25.60
2019-02-16T05:20:23.491Z,32.15
2019-02-16T05:21:30.237Z,26.97
2019-02-16T05:22:44.196Z,26.57
2019-02-16T05:23:46.064Z,21.35
2019-02-16T05:24:53.561Z,23.15
2019-02-16T05:26:00.446Z,24.40
2019-02-16T05:27:09.561Z,24.98
2019-02-16T05:28:15.708Z,20.57
2019-02-16T05:29:23.226Z,23.15
2019-02-16T05:30:30.021Z,21.23
2019-02-16T05:31:36.548Z,24.70
2019-02-16T05:32:43.420Z,26.48
2019-02-16T05:33:50.479Z,27.73
2019-02-16T05:34:57.096Z,27.93
2019-02-16T05:36:03.760Z,25.55
2019-02-16T05:37:09.860Z,25.60
2019-02-16T05:38:16.779Z,24.12
2019-02-16T05:39:24.049Z,34.27
2019-02-16T05:40:31.599Z,26.05
2019-02-16T05:41:38.310Z,25.55
2019-02-16T05:42:45.242Z,31.37
2019-02-16T05:43:52.667Z,27.35
2019-02-16T05:44:59.283Z,31.77
2019-02-16T05:46:05.832Z,27.25
2019-02-16T05:47:12.174Z,27.75
2019-02-16T05:48:20.695Z,27.17
2019-02-16T05:49:27.122Z,26.85
2019-02-16T05:50:43.481Z,26.77
2019-02-16T05:51:49.875Z,27.35
2019-02-16T05:52:56.551Z,28.62
2019-02-16T05:54:02.985Z,26.50
2019-02-16T05:55:10.482Z,24.70
2019-02-16T05:56:18.260Z,23.92
2019-02-16T05:57:25.027Z,25.27
2019-02-16T05:58:31.474Z,26.60
2019-02-16T05:59:38.558Z,27.00
2019-02-16T06:00:44.906Z,26.95
2019-02-16T06:01:54.239Z,26.85
2019-02-16T06:02:59.759Z,27.05
2019-02-16T06:04:06.800Z,25.82
2019-02-16T06:05:13.211Z,24.20
2019-02-16T06:06:20.551Z,25.48
2019-02-16T06:07:26.767Z,27.35
2019-02-16T06:08:34.562Z,27.77
2019-02-16T06:09:42.236Z,27.07
2019-02-16T06:10:49.964Z,24.60
2019-02-16T06:11:56.458Z,27.62
2019-02-16T06:13:03.530Z,29.70
2019-02-16T06:14:10.421Z,28.23
2019-02-16T06:15:17.879Z,26.12
2019-02-16T06:16:25.129Z,28.83
2019-02-16T06:17:31.209Z,28.77
2019-02-16T06:18:39.192Z,28.02
2019-02-16T06:19:45.846Z,26.20
2019-02-16T06:20:52.189Z,24.27
2019-02-16T06:21:58.594Z,30.15
2019-02-16T06:23:05.023Z,29.18
2019-02-16T06:24:11.625Z,27.82
2019-02-16T06:25:18.351Z,25.02
2019-02-16T06:26:25.527Z,25.65
2019-02-16T06:27:31.584Z,26.07
2019-02-16T06:28:38.963Z,27.65
2019-02-16T06:29:46.017Z,29.63
2019-02-16T06:30:52.675Z,28.25
2019-02-16T06:31:59.413Z,28.07
2019-02-16T06:33:06.560Z,26.90
2019-02-16T06:34:12.993Z,26.27
2019-02-16T06:35:24.172Z,24.82
2019-02-16T06:36:32.885Z,28.07
2019-02-16T06:37:40.188Z,26.25
2019-02-16T06:38:46.992Z,24.55
2019-02-16T06:39:54.611Z,25.25
2019-02-16T06:41:01.964Z,27.62
2019-02-16T06:42:08.459Z,27.55
2019-02-16T06:43:15.921Z,24.27
2019-02-16T06:44:23.187Z,26.33
2019-02-16T06:45:30.112Z,26.55
2019-02-16T06:46:36.793Z,26.45
2019-02-16T06:47:44.099Z,27.55
2019-02-16T06:48:51.321Z,26.60
2019-02-16T06:49:57.894Z,26.27
2019-02-16T06:51:04.361Z,24.67
2019-02-16T06:52:11.641Z,26.45
2019-02-16T06:53:18.239Z,26.80
2019-02-16T06:54:24.320Z,28.32
2019-02-16T06:55:33.101Z,25.17
2019-02-16T06:56:41.368Z,25.92
2019-02-16T06:57:50.709Z,24.60
2019-02-16T06:58:57.091Z,26.17
2019-02-16T07:00:04.389Z,25.70
2019-02-16T07:01:40.286Z,26.87
2019-02-16T07:02:47.645Z,24.90
2019-02-16T07:03:53.594Z,26.17
2019-02-16T07:05:00.967Z,25.62
2019-02-16T07:06:11.614Z,26.65
2019-02-16T07:07:24.212Z,26.05
2019-02-16T07:08:38.734Z,24.43
2019-02-16T07:09:47.083Z,24.55
2019-02-16T07:10:54.438Z,25.95
2019-02-16T07:12:01.142Z,28.07
2019-02-16T07:13:07.715Z,26.48
2019-02-16T07:14:13.984Z,29.02
2019-02-16T07:15:20.971Z,27.15
2019-02-16T07:16:29.071Z,27.13
2019-02-16T07:17:36.906Z,27.25
2019-02-16T07:18:44.826Z,28.50
2019-02-16T07:19:52.661Z,29.87
2019-02-16T07:21:01.308Z,29.57
2019-02-16T07:22:08.245Z,31.10
2019-02-16T07:23:22.190Z,27.87
2019-02-16T07:24:22.993Z,29.65
2019-02-16T07:25:29.228Z,27.45
2019-02-16T07:26:35.819Z,25.80
2019-02-16T07:27:43.296Z,27.02
2019-02-16T07:28:51.154Z,26.97
2019-02-16T07:29:59.091Z,27.45
2019-02-16T07:31:07.163Z,26.75
2019-02-16T07:32:37.213Z,28.15
2019-02-16T07:33:44.472Z,26.55
2019-02-16T07:34:52.987Z,27.95
2019-02-16T07:35:59.097Z,29.25
2019-02-16T07:37:08.274Z,28.70
2019-02-16T07:38:16.286Z,30.68
2019-02-16T07:39:25.189Z,27.10
2019-02-16T07:40:34.369Z,28.35
2019-02-16T07:41:43.722Z,28.25
2019-02-16T07:42:53.433Z,27.87
2019-02-16T07:44:02.514Z,27.62
2019-02-16T07:45:21.147Z,28.92
2019-02-16T07:46:32.344Z,27.93
2019-02-16T07:47:41.213Z,32.53
2019-02-16T07:49:15.037Z,30.40
2019-02-16T07:50:33.431Z,29.45
2019-02-16T07:51:42.474Z,30.30
2019-02-16T07:52:53.266Z,31.42
2019-02-16T07:54:01.256Z,28.12
2019-02-16T07:55:18.085Z,28.50
2019-02-16T07:56:38.127Z,30.57
2019-02-16T07:58:00.303Z,30.43
2019-02-16T07:59:14.135Z,31.42
2019-02-16T08:00:20.193Z,32.67
2019-02-16T08:01:36.095Z,32.05
2019-02-16T08:02:56.147Z,30.75
2019-02-16T08:04:15.073Z,28.47
2019-02-16T08:05:36.685Z,32.53
2019-02-16T08:06:44.486Z,29.57
2019-02-16T08:07:52.186Z,30.88
2019-02-16T08:09:00.306Z,29.77
2019-02-16T08:10:11.766Z,29.87
2019-02-16T08:11:18.584Z,31.40
2019-02-16T08:12:27.323Z,34.03
2019-02-16T08:13:49.793Z,32.45
2019-02-16T08:14:58.474Z,32.63
2019-02-16T08:16:29.377Z,33.80
2019-02-16T08:17:43.836Z,26.93
2019-02-16T08:18:53.396Z,30.60
2019-02-16T08:20:02.498Z,29.48
2019-02-16T08:21:12.845Z,30.65
2019-02-16T08:22:25.246Z,31.15
2019-02-16T08:23:51.136Z,32.30
2019-02-16T08:25:01.545Z,30.90
2019-02-16T08:26:22.165Z,34.48
2019-02-16T08:27:34.993Z,31.97
2019-02-16T08:28:56.076Z,34.08
2019-02-16T08:30:08.285Z,32.38
2019-02-16T08:31:17.106Z,31.10
2019-02-16T08:32:34.122Z,32.45
2019-02-16T08:33:44.193Z,32.63
2019-02-16T08:34:59.691Z,35.83
2019-02-16T08:36:10.699Z,34.83
2019-02-16T08:37:29.711Z,32.67
2019-02-16T08:38:57.092Z,32.60
2019-02-16T08:40:07.911Z,30.85
2019-02-16T08:41:18.924Z,33.48
2019-02-16T08:42:28.611Z,32.75
2019-02-16T08:43:53.881Z,29.52
2019-02-16T08:45:08.185Z,30.30
2019-02-16T08:46:15.992Z,29.95
2019-02-16T08:47:30.884Z,30.02
2019-02-16T08:48:41.074Z,33.30
2019-02-16T08:49:53.552Z,36.13
2019-02-16T08:51:18.271Z,36.45
2019-02-16T08:52:45.413Z,35.10
2019-02-16T08:53:58.213Z,32.78
2019-02-16T08:55:13.726Z,33.73
2019-02-16T08:56:28.308Z,32.20
2019-02-16T08:57:49.753Z,33.02
2019-02-16T08:58:56.167Z,35.10
2019-02-16T09:00:07.868Z,31.48
2019-02-16T09:01:24.699Z,33.53
2019-02-16T09:02:33.431Z,33.83
2019-02-16T09:03:41.104Z,32.00
2019-02-16T09:04:56.612Z,30.52
2019-02-16T09:06:28.332Z,33.58
2019-02-16T09:07:42.856Z,33.25
2019-02-16T09:09:04.053Z,33.00
2019-02-16T09:10:23.407Z,33.90
2019-02-16T09:11:51.293Z,36.35
2019-02-16T09:12:59.842Z,38.65
2019-02-16T09:14:09.911Z,39.08
2019-02-16T09:15:21.932Z,40.98
2019-02-16T09:16:42.123Z,38.10
2019-02-16T09:17:53.646Z,37.98
2019-02-16T09:19:03.451Z,36.25
2019-02-16T09:20:13.380Z,33.10
2019-02-16T09:21:27.172Z,35.20
2019-02-16T09:22:52.545Z,36.03
2019-02-16T09:24:03.825Z,35.10
2019-02-16T09:25:16.641Z,34.15
2019-02-16T09:26:25.233Z,34.13
2019-02-16T09:27:41.425Z,34.03
2019-02-16T09:29:10.932Z,33.28
2019-02-16T09:30:32.346Z,36.68
2019-02-16T09:31:54.336Z,37.35
2019-02-16T09:33:10.514Z,37.80
2019-02-16T09:34:37.232Z,36.75
2019-02-16T09:35:57.773Z,34.65
2019-02-16T09:37:13.644Z,37.70
2019-02-16T09:38:33.705Z,33.02
2019-02-16T09:39:44.694Z,35.80
2019-02-16T09:41:02.086Z,36.50
2019-02-16T09:42:22.853Z,35.75
2019-02-16T09:43:48.811Z,34.98
2019-02-16T09:45:15.025Z,33.95
2019-02-16T09:46:26.515Z,34.10
2019-02-16T09:47:39.011Z,34.53
2019-02-16T09:49:23.052Z,35.70
2019-02-16T09:50:49.372Z,34.83
2019-02-16T09:52:06.004Z,34.78
2019-02-16T09:53:18.665Z,37.13
2019-02-16T09:54:43.152Z,35.17
2019-02-16T09:55:52.232Z,34.35
2019-02-16T09:57:07.091Z,37.70
2019-02-16T09:58:22.535Z,36.40
2019-02-16T09:59:34.593Z,33.78
2019-02-16T10:00:55.475Z,34.08
2019-02-16T10:02:03.900Z,35.80
2019-02-16T10:03:51.836Z,34.80
2019-02-16T10:05:08.313Z,33.33
2019-02-16T10:06:35.072Z,34.13
2019-02-16T10:07:53.333Z,33.42
2019-02-16T10:09:07.733Z,31.87
2019-02-16T10:10:27.872Z,30.70
2019-02-16T10:11:52.313Z,31.07
2019-02-16T10:13:23.520Z,32.25
2019-02-16T10:14:40.440Z,33.18
2019-02-16T10:17:53.237Z,32.03
2019-02-16T10:19:12.852Z,33.15
2019-02-16T10:20:23.346Z,31.57
2019-02-16T10:21:45.706Z,33.25
2019-02-16T10:22:53.932Z,31.27
2019-02-16T10:24:18.600Z,34.25
2019-02-16T10:25:29.653Z,31.25
2019-02-16T10:26:48.514Z,31.77
2019-02-16T10:28:07.106Z,32.42
2019-02-16T10:29:26.438Z,30.32
2019-02-16T10:30:36.523Z,29.95
2019-02-16T10:31:51.065Z,29.30
2019-02-16T10:32:59.834Z,29.32
2019-02-16T10:34:20.155Z,29.95
2019-02-16T10:35:28.985Z,30.23
2019-02-16T10:36:47.014Z,29.72
2019-02-16T10:38:04.866Z,29.20
2019-02-16T10:39:13.850Z,30.45
2019-02-16T10:40:20.007Z,30.27
2019-02-16T10:41:31.472Z,30.23
2019-02-16T10:42:45.147Z,29.98
2019-02-16T10:44:24.118Z,32.25
2019-02-16T10:45:35.033Z,30.02
2019-02-16T10:46:46.465Z,29.63
2019-02-16T10:49:17.093Z,30.17
2019-02-16T10:50:29.305Z,30.82
2019-02-16T10:51:40.495Z,31.12
2019-02-16T10:52:47.505Z,31.67
2019-02-16T10:54:03.208Z,30.20
2019-02-16T10:55:21.825Z,32.00
2019-02-16T10:56:30.876Z,31.85
2019-02-16T10:57:54.032Z,31.50
2019-02-16T10:59:21.846Z,32.20
2019-02-16T11:00:48.533Z,27.70
2019-02-16T11:02:11.366Z,29.85
2019-02-16T11:03:25.613Z,27.50
2019-02-16T11:04:38.840Z,30.10
2019-02-16T11:05:51.029Z,31.05
2019-02-16T11:07:11.445Z,30.15
2019-02-16T11:08:20.172Z,27.80
2019-02-16T11:09:32.621Z,28.57
2019-02-16T11:10:41.165Z,28.80
2019-02-16T11:11:49.954Z,29.00
2019-02-16T11:13:02.273Z,27.65
2019-02-16T11:14:29.636Z,27.50
2019-02-16T11:15:37.795Z,26.57
2019-02-16T11:16:43.845Z,29.00
2019-02-16T11:17:51.926Z,27.20
2019-02-16T11:19:07.846Z,28.67
2019-02-16T11:20:24.793Z,27.63
2019-02-16T11:21:32.361Z,27.70
2019-02-16T11:22:42.633Z,27.07
2019-02-16T11:24:01.534Z,27.63
2019-02-16T11:25:15.821Z,26.67
2019-02-16T11:26:29.986Z,26.20
2019-02-16T11:27:46.356Z,26.67
2019-02-16T11:29:11.634Z,24.93
2019-02-16T11:30:20.460Z,26.97
2019-02-16T11:31:46.637Z,26.77
2019-02-16T11:33:00.502Z,23.07
2019-02-16T11:34:25.673Z,23.93
2019-02-16T11:35:36.307Z,23.80
2019-02-16T11:36:43.033Z,24.23
2019-02-16T11:37:51.553Z,22.10
2019-02-16T11:39:02.646Z,23.37
2019-02-16T11:40:19.146Z,22.10
2019-02-16T11:41:28.514Z,22.50
2019-02-16T11:42:41.055Z,23.80
2019-02-16T11:43:58.906Z,24.10
2019-02-16T11:45:29.355Z,23.90
2019-02-16T11:46:42.573Z,23.27
2019-02-16T11:47:57.193Z,23.37
2019-02-16T11:49:12.968Z,24.00
2019-02-16T11:50:42.046Z,20.93
2019-02-16T11:52:09.881Z,22.23
2019-02-16T11:53:24.335Z,23.17
2019-02-16T11:54:32.426Z,23.50
2019-02-16T11:55:59.314Z,23.40
2019-02-16T11:57:09.469Z,22.97
2019-02-16T11:58:23.227Z,22.57
2019-02-16T11:59:33.433Z,21.80
2019-02-16T12:00:48.190Z,22.13
2019-02-16T12:02:08.415Z,23.33
2019-02-16T12:03:19.045Z,24.07
2019-02-16T12:04:36.221Z,24.03
2019-02-16T12:05:46.381Z,20.97
2019-02-16T12:07:01.107Z,22.70
2019-02-16T12:08:08.754Z,22.60
2019-02-16T12:09:36.174Z,23.17
2019-02-16T12:10:44.554Z,22.43
2019-02-16T12:11:56.835Z,22.30
2019-02-16T12:13:17.354Z,22.37
2019-02-16T12:14:39.722Z,22.63
2019-02-16T12:15:51.201Z,22.30
2019-02-16T12:16:59.100Z,22.73
2019-02-16T12:18:15.325Z,23.27
2019-02-16T12:19:21.943Z,22.03
2019-02-16T12:20:34.061Z,22.83
2019-02-16T12:21:54.642Z,22.77
2019-02-16T12:23:11.983Z,23.70
2019-02-16T12:24:23.176Z,23.33
2019-02-16T12:25:39.556Z,20.90
2019-02-16T12:26:50.369Z,21.90
2019-02-16T12:28:00.018Z,20.90
2019-02-16T12:29:20.689Z,21.33
2019-02-16T12:30:32.970Z,21.27
2019-02-16T12:31:57.963Z,22.17
2019-02-16T12:33:06.202Z,22.80
2019-02-16T12:34:14.551Z,21.13
2019-02-16T12:35:22.964Z,20.90
2019-02-16T12:36:30.805Z,21.17
2019-02-16T12:37:39.371Z,20.03
2019-02-16T12:38:48.751Z,22.70
2019-02-16T12:40:11.733Z,19.20
2019-02-16T12:41:28.553Z,18.77
2019-02-16T12:42:48.065Z,19.67
2019-02-16T12:43:59.845Z,20.80
2019-02-16T12:45:12.519Z,18.13
2019-02-16T12:46:20.910Z,20.53
2019-02-16T12:47:30.230Z,19.60
2019-02-16T12:48:48.575Z,19.17
2019-02-16T12:50:00.246Z,19.50
2019-02-16T12:51:09.174Z,19.07
2019-02-16T12:52:36.055Z,19.47
2019-02-16T12:53:45.535Z,22.23
2019-02-16T12:55:14.473Z,18.13
2019-02-16T12:56:20.386Z,18.00
2019-02-16T12:57:34.437Z,19.13
2019-02-16T12:58:48.835Z,19.13
2019-02-16T13:00:13.128Z,17.60
2019-02-16T13:01:27.974Z,17.43
2019-02-16T13:02:39.402Z,17.77
2019-02-16T13:04:04.421Z,18.03
2019-02-16T13:05:12.380Z,17.53
2019-02-16T13:06:20.731Z,18.07
2019-02-16T13:07:28.764Z,16.77
2019-02-16T13:08:42.713Z,17.37
2019-02-16T13:10:06.013Z,17.80
2019-02-16T13:11:29.252Z,17.77
2019-02-16T13:12:35.620Z,16.67
2019-02-16T13:14:00.193Z,17.90
2019-02-16T13:15:15.055Z,17.70
2019-02-16T13:16:25.512Z,17.50
2019-02-16T13:17:53.581Z,16.50
2019-02-16T13:19:00.792Z,18.87
2019-02-16T13:20:23.791Z,17.80
2019-02-16T13:21:39.074Z,17.33
2019-02-16T13:23:02.958Z,17.63
2019-02-16T13:24:13.715Z,17.93
2019-02-16T13:25:27.409Z,17.67
2019-02-16T13:26:44.140Z,18.53
2019-02-16T13:28:12.260Z,17.97
2019-02-16T13:29:21.640Z,18.90
2019-02-16T13:30:30.901Z,20.07
2019-02-16T13:31:55.093Z,18.73
2019-02-16T13:33:08.794Z,19.80
2019-02-16T13:34:33.521Z,19.67
2019-02-16T13:35:40.522Z,21.43
2019-02-16T13:36:53.380Z,20.50
2019-02-16T13:38:02.100Z,19.50
2019-02-16T13:39:11.420Z,20.03
2019-02-16T13:40:22.562Z,21.57
2019-02-16T13:41:34.283Z,21.87
2019-02-16T13:42:43.395Z,20.40
2019-02-16T13:43:52.620Z,19.80
2019-02-16T13:45:01.244Z,20.07
2019-02-16T13:46:09.869Z,21.23
2019-02-16T13:47:30.977Z,21.47
2019-02-16T13:48:39.513Z,20.33
2019-02-16T13:49:47.933Z,20.20
2019-02-16T13:50:56.503Z,23.10
2019-02-16T13:52:13.592Z,25.73
2019-02-16T13:53:24.802Z,25.70
2019-02-16T13:54:33.601Z,22.50
2019-02-16T13:55:47.754Z,21.27
2019-02-16T13:56:59.960Z,22.07
2019-02-16T13:58:17.109Z,22.13
2019-02-16T13:59:25.238Z,24.23
2019-02-16T14:00:42.210Z,25.30
2019-02-16T14:02:03.358Z,23.00
2019-02-16T14:03:11.609Z,23.27
2019-02-16T14:04:30.995Z,22.07
2019-02-16T14:05:47.698Z,22.67
2019-02-16T14:06:56.584Z,22.37
2019-02-16T14:08:05.999Z,22.17
2019-02-16T14:09:14.594Z,21.67
2019-02-16T14:10:23.479Z,22.20
2019-02-16T14:11:37.878Z,23.80
2019-02-16T14:12:54.751Z,21.97
2019-02-16T14:14:18.841Z,23.23
2019-02-16T14:15:29.636Z,23.20
2019-02-16T14:16:41.559Z,23.60
2019-02-16T14:17:49.098Z,24.73
2019-02-16T14:18:56.522Z,25.00
2019-02-16T14:20:03.928Z,25.93
2019-02-16T14:21:11.121Z,23.40
2019-02-16T14:22:18.061Z,23.30
2019-02-16T14:23:24.899Z,21.67
2019-02-16T14:24:45.483Z,23.23
2019-02-16T14:25:52.475Z,23.07
2019-02-16T14:26:59.556Z,22.67
2019-02-16T14:28:06.496Z,22.50
2019-02-16T14:29:13.057Z,22.43
2019-02-16T14:30:19.617Z,23.33
2019-02-16T14:31:28.706Z,24.90
2019-02-16T14:32:35.701Z,24.27
2019-02-16T14:33:43.105Z,22.70
2019-02-16T14:34:50.065Z,23.27
2019-02-16T14:35:57.026Z,21.63
2019-02-16T14:37:05.506Z,23.17
2019-02-16T14:38:15.545Z,21.97
2019-02-16T14:39:23.706Z,22.60
2019-02-16T14:40:31.425Z,22.80
2019-02-16T14:41:39.005Z,22.80
2019-02-16T14:42:45.686Z,23.53
2019-02-16T14:43:52.688Z,26.47
2019-02-16T14:44:59.851Z,24.87
2019-02-16T14:46:06.173Z,24.47
2019-02-16T14:47:14.052Z,24.00
2019-02-16T14:48:20.658Z,24.63
2019-02-16T14:49:27.022Z,26.07
2019-02-16T14:50:34.286Z,23.33
2019-02-16T14:51:42.931Z,23.70
2019-02-16T14:52:50.111Z,23.00
2019-02-16T14:53:56.742Z,29.53
2019-02-16T14:55:03.420Z,26.73
2019-02-16T14:56:10.168Z,24.70
2019-02-16T14:57:17.168Z,24.77
2019-02-16T14:58:23.773Z,24.23
2019-02-16T14:59:30.767Z,26.73
2019-02-16T15:00:38.149Z,25.90
2019-02-16T15:01:45.179Z,25.37
2019-02-16T15:02:51.747Z,23.67
2019-02-16T15:03:59.138Z,22.83
2019-02-16T15:05:06.577Z,24.53
2019-02-16T15:06:13.706Z,22.90
2019-02-16T15:07:21.009Z,24.17
2019-02-16T15:08:29.035Z,23.43
2019-02-16T15:09:35.822Z,24.47
2019-02-16T15:10:43.354Z,23.37
2019-02-16T15:11:49.894Z,24.30
2019-02-16T15:12:56.924Z,23.10
2019-02-16T15:14:04.306Z,23.80
2019-02-16T15:15:14.264Z,23.53
2019-02-16T15:16:21.867Z,23.33